Time;durP1;ratioP1;P1;durP2;ratioP2;P2;SDS_P1;SDS_P2;PMS_P1;PMS_P2;Temp;Humidity;BMP_temperature;BMP_pressure;BME280_temperature;BME280_humidity;BME280_pressure;Samples;Min_cycle;Max_cycle;Signal;HPM_P1;HPM_P2
2023/10/17 00:01:17;;;;;;;12.93;9.37;;;1.50;99.90;;;;;;5135730;27;20218;-70
2023/10/17 00:03:45;;;;;;;15.27;10.67;;;1.50;99.90;;;;;;5136474;27;20191;-71
2023/10/17 00:06:16;;;;;;;13.97;9.57;;;1.40;99.90;;;;;;5135914;27;20322;-71
2023/10/17 00:08:43;;;;;;;14.63;10.33;;;1.40;99.90;;;;;;5136300;27;20199;-70
2023/10/17 00:11:15;;;;;;;14.17;10.53;;;1.30;99.90;;;;;;5135831;27;20187;-68
2023/10/17 00:13:52;;;;;;;14.63;9.93;;;1.30;99.90;;;;;;5135912;27;20672;-70
2023/10/17 00:16:19;;;;;;;12.63;10.00;;;1.30;99.90;;;;;;5135929;27;20599;-69
2023/10/17 00:18:45;;;;;;;13.60;10.67;;;1.20;99.90;;;;;;5136092;27;20248;-70
2023/10/17 00:21:22;;;;;;;15.07;10.23;;;1.10;99.90;;;;;;5123247;27;20226;-70
2023/10/17 00:23:51;;;;;;;14.33;10.33;;;1.00;99.90;;;;;;5115285;28;20195;-71
2023/10/17 00:26:19;;;;;;;14.93;10.73;;;0.90;99.90;;;;;;5115068;27;20272;-71
2023/10/17 00:28:47;;;;;;;15.80;10.10;;;0.80;99.90;;;;;;5115547;28;20223;-71
2023/10/17 00:31:14;;;;;;;15.83;10.53;;;0.80;99.90;;;;;;5115020;28;20607;-69
2023/10/17 00:33:41;;;;;;;14.90;9.43;;;0.80;99.90;;;;;;5115058;28;20230;-70
2023/10/17 00:36:14;;;;;;;13.20;9.63;;;0.90;99.90;;;;;;5115143;27;20275;-70
2023/10/17 00:38:43;;;;;;;17.50;10.10;;;0.90;99.90;;;;;;5114912;28;20192;-72
2023/10/17 00:41:16;;;;;;;14.13;10.00;;;0.80;99.90;;;;;;5115121;27;20188;-70
2023/10/17 00:43:43;;;;;;;12.37;9.97;;;0.70;99.90;;;;;;5115272;28;20200;-70
2023/10/17 00:46:10;;;;;;;16.10;10.00;;;0.80;99.90;;;;;;5114878;28;20227;-69
2023/10/17 00:48:37;;;;;;;13.30;9.90;;;0.60;99.90;;;;;;5114814;28;20204;-68
2023/10/17 00:51:08;;;;;;;12.60;10.03;;;0.50;99.90;;;;;;5114768;28;20258;-70
2023/10/17 00:53:38;;;;;;;14.93;9.40;;;0.60;99.90;;;;;;5114223;28;20223;-69
2023/10/17 00:56:07;;;;;;;14.87;9.43;;;0.60;99.90;;;;;;5130507;27;20232;-69
2023/10/17 00:58:34;;;;;;;14.13;9.73;;;0.60;99.90;;;;;;5135490;27;20199;-71
2023/10/17 01:01:14;;;;;;;15.20;10.77;;;0.50;99.90;;;;;;5134991;27;20285;-69
2023/10/17 01:03:43;;;;;;;14.47;10.23;;;0.60;99.90;;;;;;5135011;27;20195;-69
2023/10/17 01:06:21;;;;;;;13.03;10.00;;;0.60;99.90;;;;;;5134789;27;20227;-70
2023/10/17 01:08:48;;;;;;;14.57;10.13;;;0.60;99.90;;;;;;5133372;27;20198;-71
2023/10/17 01:11:20;;;;;;;16.23;10.30;;;0.50;99.90;;;;;;5134630;27;20198;-68
2023/10/17 01:13:47;;;;;;;14.07;10.37;;;0.50;99.90;;;;;;5133894;27;20199;-70
2023/10/17 01:16:16;;;;;;;17.07;10.87;;;0.40;99.90;;;;;;5134036;27;20199;-70
2023/10/17 01:18:45;;;;;;;15.07;10.60;;;0.50;99.90;;;;;;5135141;27;20191;-69
2023/10/17 01:21:17;;;;;;;17.30;10.90;;;0.50;99.90;;;;;;5134690;27;20277;-69
2023/10/17 01:23:44;;;;;;;18.80;10.80;;;0.40;99.90;;;;;;5135004;27;20654;-68
2023/10/17 01:26:14;;;;;;;15.93;10.70;;;0.40;99.90;;;;;;5135130;27;20222;-69
2023/10/17 01:28:45;;;;;;;13.57;9.70;;;0.40;99.90;;;;;;5134811;27;20258;-67
2023/10/17 01:31:14;;;;;;;15.10;10.17;;;0.40;99.90;;;;;;5135055;27;20335;-69
2023/10/17 01:33:42;;;;;;;13.73;9.57;;;0.60;99.90;;;;;;5134716;27;20251;-69
2023/10/17 01:36:10;;;;;;;15.93;9.87;;;0.60;99.90;;;;;;5134774;27;20202;-69
2023/10/17 01:38:38;;;;;;;14.53;10.43;;;0.50;99.90;;;;;;5134639;27;20195;-69
2023/10/17 01:41:05;;;;;;;14.83;10.00;;;0.70;99.90;;;;;;5134672;27;20279;-69
2023/10/17 01:43:37;;;;;;;14.33;9.93;;;0.60;99.90;;;;;;5134833;27;20199;-69
2023/10/17 01:46:06;;;;;;;13.33;10.13;;;0.60;99.90;;;;;;5134947;27;20257;-69
2023/10/17 01:48:33;;;;;;;15.37;10.30;;;0.50;99.90;;;;;;5134675;27;20206;-70
2023/10/17 01:51:07;;;;;;;17.07;10.97;;;0.60;99.90;;;;;;5134370;27;20195;-69
2023/10/17 01:53:35;;;;;;;17.93;10.63;;;0.60;99.90;;;;;;5134397;27;20227;-70
2023/10/17 01:56:15;;;;;;;15.30;10.23;;;0.50;99.90;;;;;;5134569;27;20226;-68
2023/10/17 01:58:48;;;;;;;12.87;9.40;;;0.40;99.90;;;;;;5134461;27;20191;-69
2023/10/17 02:01:17;;;;;;;14.87;9.80;;;0.30;99.90;;;;;;5134401;27;20199;-70
2023/10/17 02:03:44;;;;;;;14.67;9.60;;;0.20;99.90;;;;;;5134306;27;20191;-69
2023/10/17 02:06:17;;;;;;;17.03;10.33;;;0.30;99.90;;;;;;5134104;27;20697;-69
2023/10/17 02:08:44;;;;;;;11.20;8.80;;;0.30;99.90;;;;;;5134361;27;20202;-70
2023/10/17 02:11:15;;;;;;;13.50;9.53;;;0.10;99.90;;;;;;5134326;27;20196;-69
2023/10/17 02:13:45;;;;;;;18.73;9.60;;;0.00;99.90;;;;;;5134241;27;20202;-67
2023/10/17 02:16:13;;;;;;;11.83;9.47;;;0.10;99.90;;;;;;5134133;27;20272;-68
2023/10/17 02:18:40;;;;;;;13.50;9.20;;;0.00;99.90;;;;;;5133909;27;20201;-68
2023/10/17 02:21:06;;;;;;;15.20;9.63;;;-0.10;99.90;;;;;;5133976;27;20256;-68
2023/10/17 02:23:43;;;;;;;15.03;10.33;;;-0.10;99.90;;;;;;5134182;27;20204;-69
2023/10/17 02:26:11;;;;;;;19.47;11.07;;;-0.20;99.90;;;;;;5134107;27;20219;-69
2023/10/17 02:28:46;;;;;;;20.03;11.00;;;-0.30;99.90;;;;;;5133938;27;20289;-69
2023/10/17 02:31:15;;;;;;;13.53;9.33;;;-0.30;99.90;;;;;;5133909;27;20661;-69
2023/10/17 02:33:42;;;;;;;17.57;9.70;;;-0.30;99.90;;;;;;5133966;27;20317;-69
2023/10/17 02:36:12;;;;;;;16.40;10.63;;;-0.20;99.90;;;;;;5133961;28;20300;-69
2023/10/17 02:38:39;;;;;;;15.07;10.30;;;-0.30;99.90;;;;;;5133726;28;20676;-69
2023/10/17 02:41:08;;;;;;;16.13;10.47;;;-0.20;99.90;;;;;;5133851;28;20199;-69
2023/10/17 02:43:37;;;;;;;15.47;10.50;;;-0.10;99.90;;;;;;5133716;28;20191;-68
2023/10/17 02:46:05;;;;;;;14.87;9.03;;;-0.20;99.90;;;;;;5133629;28;20279;-68
2023/10/17 02:48:38;;;;;;;14.47;9.97;;;-0.30;99.90;;;;;;5133859;28;20199;-68
2023/10/17 02:51:11;;;;;;;14.93;9.80;;;-0.30;99.90;;;;;;5133783;28;20289;-68
2023/10/17 02:53:43;;;;;;;15.53;10.20;;;-0.30;99.90;;;;;;5133777;28;20202;-69
2023/10/17 02:56:19;;;;;;;14.60;10.30;;;-0.30;99.90;;;;;;5133566;28;20286;-69
2023/10/17 02:58:50;;;;;;;16.30;10.43;;;-0.50;99.90;;;;;;5133799;28;20247;-69
2023/10/17 03:01:17;;;;;;;14.10;10.07;;;-0.50;99.90;;;;;;5133743;28;20203;-69
2023/10/17 03:03:50;;;;;;;15.57;11.00;;;-0.40;99.90;;;;;;5133606;28;20206;-68
2023/10/17 03:06:17;;;;;;;17.37;10.13;;;-0.40;99.90;;;;;;5133559;28;20268;-68
2023/10/17 03:08:50;;;;;;;13.80;9.80;;;-0.40;99.90;;;;;;5133382;28;20199;-69
2023/10/17 03:11:17;;;;;;;14.37;10.30;;;-0.40;99.90;;;;;;5133713;28;20194;-68
2023/10/17 03:13:45;;;;;;;15.13;11.27;;;-0.40;99.90;;;;;;5133554;28;20195;-69
2023/10/17 03:16:25;;;;;;;17.10;11.40;;;-0.50;99.90;;;;;;5133587;28;20203;-69
2023/10/17 03:18:52;;;;;;;14.47;11.03;;;-0.50;99.90;;;;;;5133386;28;20654;-69
2023/10/17 03:21:20;;;;;;;15.60;11.00;;;-0.50;99.90;;;;;;5133306;28;20206;-68
2023/10/17 03:23:49;;;;;;;14.37;10.30;;;-0.50;99.90;;;;;;5133461;28;20194;-70
2023/10/17 03:26:18;;;;;;;17.47;11.30;;;-0.70;99.90;;;;;;5133452;28;20226;-69
2023/10/17 03:28:46;;;;;;;16.43;10.70;;;-0.80;99.90;;;;;;5133428;28;20248;-70
2023/10/17 03:31:20;;;;;;;15.87;10.70;;;-0.80;99.90;;;;;;5133367;27;20290;-70
2023/10/17 03:33:50;;;;;;;15.60;10.20;;;-0.90;99.90;;;;;;5136639;27;20254;-69
2023/10/17 03:39:18;;;;;;;16.10;10.57;;;-0.70;99.90;;;;;;5136107;27;20198;-69
2023/10/17 03:41:45;;;;;;;17.83;10.90;;;-0.70;99.90;;;;;;5137077;27;20607;-69
2023/10/17 03:44:15;;;;;;;15.67;10.80;;;-0.80;99.90;;;;;;5136807;27;20281;-68
2023/10/17 03:46:46;;;;;;;15.80;10.87;;;-0.70;99.90;;;;;;5137284;27;20226;-69
2023/10/17 03:49:17;;;;;;;13.90;10.40;;;-0.70;99.90;;;;;;5137003;27;20199;-68
2023/10/17 03:51:51;;;;;;;13.87;9.40;;;-0.80;99.90;;;;;;5136773;27;20557;-69
2023/10/17 03:54:18;;;;;;;15.73;10.10;;;-0.70;99.90;;;;;;5136704;27;20582;-70
2023/10/17 03:56:46;;;;;;;16.63;11.00;;;-0.70;99.90;;;;;;5136628;27;20285;-69
2023/10/17 03:59:27;;;;;;;17.37;10.27;;;-0.80;99.90;;;;;;5136819;27;20197;-69
2023/10/17 04:01:54;;;;;;;19.87;10.53;;;-0.80;99.90;;;;;;5136572;27;20607;-69
2023/10/17 04:04:33;;;;;;;17.70;10.97;;;-0.80;99.90;;;;;;5136467;27;20195;-69
2023/10/17 04:07:04;;;;;;;17.00;11.43;;;-0.80;99.90;;;;;;5136340;27;20215;-68
2023/10/17 04:09:37;;;;;;;16.97;11.20;;;-0.70;99.90;;;;;;5136547;27;20617;-69
2023/10/17 04:12:06;;;;;;;15.93;11.27;;;-0.50;99.90;;;;;;5136579;27;20289;-69
2023/10/17 04:14:34;;;;;;;16.80;10.77;;;-0.30;99.90;;;;;;5136416;27;20201;-69
2023/10/17 04:17:02;;;;;;;15.47;10.80;;;-0.50;99.90;;;;;;5136268;27;20195;-69
2023/10/17 04:19:30;;;;;;;15.60;10.33;;;-0.50;99.90;;;;;;5136073;27;20218;-69
2023/10/17 04:22:07;;;;;;;17.27;11.73;;;-0.50;99.90;;;;;;5136636;27;20252;-69
2023/10/17 04:24:35;;;;;;;15.87;11.40;;;-0.60;99.90;;;;;;5136262;27;20232;-69
2023/10/17 04:27:19;;;;;;;19.40;12.07;;;-0.60;99.90;;;;;;5135919;27;20610;-69
2023/10/17 04:29:51;;;;;;;19.27;11.50;;;-0.60;99.90;;;;;;5135901;27;20654;-69
2023/10/17 04:32:19;;;;;;;17.27;10.77;;;-0.70;99.90;;;;;;5136117;27;20189;-69
2023/10/17 04:34:46;;;;;;;17.50;11.73;;;-0.70;99.90;;;;;;5135631;27;20227;-69
2023/10/17 04:37:16;;;;;;;19.07;12.00;;;-0.80;99.90;;;;;;5135736;27;20199;-69
2023/10/17 04:39:49;;;;;;;17.83;11.33;;;-0.70;99.90;;;;;;5135803;27;20195;-69
2023/10/17 04:42:20;;;;;;;16.00;11.13;;;-0.70;99.90;;;;;;5135681;27;20199;-69
2023/10/17 04:44:50;;;;;;;20.33;11.90;;;-0.70;99.90;;;;;;5135549;27;20234;-69
2023/10/17 04:47:28;;;;;;;18.47;12.23;;;-0.70;99.90;;;;;;5135653;27;20272;-68
2023/10/17 04:49:54;;;;;;;17.47;12.63;;;-0.70;99.90;;;;;;5135733;27;20198;-68
2023/10/17 04:52:28;;;;;;;18.00;10.80;;;-0.60;99.90;;;;;;5135524;27;20211;-68
2023/10/17 04:55:01;;;;;;;18.17;11.73;;;-0.40;99.90;;;;;;5135465;27;20279;-68
2023/10/17 04:57:54;;;;;;;18.77;11.50;;;-0.30;99.90;;;;;;5135754;27;20248;-68
2023/10/17 05:00:25;;;;;;;18.50;11.80;;;-0.20;99.90;;;;;;5135516;27;20199;-70
2023/10/17 05:03:02;;;;;;;21.53;11.33;;;-0.20;99.90;;;;;;5135419;27;20233;-69
2023/10/17 05:05:45;;;;;;;19.17;11.23;;;-0.20;99.90;;;;;;5135136;27;20199;-69
2023/10/17 05:08:11;;;;;;;19.13;11.17;;;-0.20;99.90;;;;;;5135268;27;20275;-69
2023/10/17 06:19:15;;;;;;;16.87;11.93;;;0.90;99.90;;;;;;5134073;27;20228;-69
2023/10/17 06:22:35;;;;;;;17.33;12.67;;;0.90;99.90;;;;;;5134048;27;20241;-69
2023/10/17 06:26:04;;;;;;;15.77;11.07;;;1.00;99.90;;;;;;5133549;27;20205;-69
2023/10/17 06:30:33;;;;;;;14.40;11.00;;;1.20;99.90;;;;;;5134214;27;20653;-69
2023/10/17 06:33:08;;;;;;;15.40;11.77;;;1.30;99.90;;;;;;5133522;27;20198;-69
2023/10/17 06:35:38;;;;;;;19.13;11.17;;;1.30;99.90;;;;;;5134095;27;20234;-69
2023/10/17 06:38:04;;;;;;;19.10;11.53;;;1.40;99.90;;;;;;5133849;28;20226;-69
2023/10/17 06:40:34;;;;;;;18.20;11.80;;;1.50;99.90;;;;;;5133637;28;20245;-68
2023/10/17 06:43:00;;;;;;;19.80;11.83;;;1.60;99.90;;;;;;5133827;28;20266;-68
2023/10/17 06:45:32;;;;;;;20.17;13.47;;;1.70;99.90;;;;;;5133515;28;20195;-68
2023/10/17 06:47:59;;;;;;;20.90;13.03;;;1.80;99.90;;;;;;5133666;28;20242;-68
2023/10/17 06:53:15;;;;;;;26.53;14.10;;;1.90;99.90;;;;;;5132306;28;20214;-69
2023/10/17 06:55:44;;;;;;;30.37;13.53;;;2.00;99.90;;;;;;5133556;28;20289;-69
2023/10/17 06:58:11;;;;;;;21.10;13.40;;;2.10;99.90;;;;;;5133712;28;20210;-69
2023/10/17 07:00:49;;;;;;;20.93;12.80;;;2.20;99.90;;;;;;5133566;28;20195;-69
2023/10/17 07:03:17;;;;;;;20.90;13.30;;;2.20;99.90;;;;;;5133595;28;20202;-69
2023/10/17 07:05:49;;;;;;;18.47;12.60;;;2.30;99.90;;;;;;5133563;27;20240;-69
2023/10/17 07:08:17;;;;;;;20.60;13.33;;;2.40;99.90;;;;;;5136306;27;20225;-69
2023/10/17 07:10:58;;;;;;;20.87;12.10;;;2.50;99.90;;;;;;5137836;27;20295;-70
2023/10/17 07:13:54;;;;;;;21.80;12.90;;;2.70;99.90;;;;;;5137734;27;20196;-70
2023/10/17 07:16:26;;;;;;;21.87;13.10;;;2.90;99.90;;;;;;5137456;27;20203;-69
2023/10/17 07:18:53;;;;;;;22.20;12.17;;;3.00;99.90;;;;;;5137310;27;20291;-70
2023/10/17 07:21:24;;;;;;;17.67;11.57;;;3.00;99.90;;;;;;5137550;27;20193;-69
2023/10/17 07:23:54;;;;;;;17.17;11.50;;;3.10;99.90;;;;;;5137407;27;20530;-70
2023/10/17 07:26:39;;;;;;;16.63;10.50;;;3.10;99.90;;;;;;5137262;27;20271;-70
2023/10/17 07:29:07;;;;;;;16.17;10.53;;;3.20;99.90;;;;;;5137509;27;20226;-69
2023/10/17 07:31:36;;;;;;;16.90;10.47;;;3.40;99.90;;;;;;5137204;27;20208;-70
2023/10/17 07:34:17;;;;;;;14.67;10.20;;;3.50;99.90;;;;;;5137126;27;20264;-69
2023/10/17 07:36:48;;;;;;;15.83;9.33;;;3.70;99.90;;;;;;5137252;27;20203;-70
2023/10/17 07:39:29;;;;;;;15.07;10.10;;;3.80;99.90;;;;;;5137101;27;20259;-71
2023/10/17 07:41:57;;;;;;;20.27;10.80;;;3.90;99.90;;;;;;5137264;27;20208;-70
2023/10/17 07:44:26;;;;;;;17.33;10.47;;;3.90;99.90;;;;;;5137028;27;20230;-68
2023/10/17 07:47:08;;;;;;;15.00;9.87;;;3.90;99.90;;;;;;5136903;27;20218;-69
2023/10/17 07:49:36;;;;;;;16.27;9.57;;;4.00;99.90;;;;;;5136902;27;20203;-69
2023/10/17 07:52:10;;;;;;;13.80;9.20;;;4.30;99.90;;;;;;5136786;27;20201;-69
2023/10/17 07:54:45;;;;;;;14.47;7.87;;;4.40;99.90;;;;;;5137015;27;20197;-70
2023/10/17 07:57:17;;;;;;;12.00;8.37;;;4.30;99.90;;;;;;5136680;27;20645;-69
2023/10/17 07:59:50;;;;;;;12.13;7.80;;;4.70;99.90;;;;;;5136903;27;20233;-69
2023/10/17 08:02:20;;;;;;;15.73;9.00;;;4.80;99.90;;;;;;5136625;27;20243;-70
2023/10/17 08:04:48;;;;;;;14.53;8.53;;;4.90;99.90;;;;;;5136741;27;20668;-69
2023/10/17 08:07:18;;;;;;;14.37;8.20;;;5.00;99.90;;;;;;5136633;27;20219;-70
2023/10/17 08:09:50;;;;;;;11.43;8.07;;;5.10;99.90;;;;;;5136574;27;20199;-70
2023/10/17 08:12:21;;;;;;;10.10;7.70;;;5.20;99.90;;;;;;5136514;27;20562;-70
2023/10/17 08:14:57;;;;;;;11.83;7.33;;;5.40;99.90;;;;;;5136574;27;20210;-69
2023/10/17 08:17:34;;;;;;;12.00;7.07;;;5.50;99.90;;;;;;5136286;27;20195;-69
2023/10/17 08:20:38;;;;;;;10.53;6.93;;;5.60;99.90;;;;;;5136407;27;20194;-69
2023/10/17 08:23:06;;;;;;;11.67;7.80;;;5.90;99.90;;;;;;5136061;27;20275;-69
2023/10/17 08:25:39;;;;;;;10.30;7.33;;;6.00;99.90;;;;;;5136293;27;20190;-69
2023/10/17 08:28:23;;;;;;;12.53;8.10;;;6.10;99.90;;;;;;5136149;27;20245;-69
2023/10/17 08:30:51;;;;;;;10.47;7.97;;;6.40;99.90;;;;;;5135939;27;20220;-70
2023/10/17 08:33:19;;;;;;;10.53;7.00;;;6.50;99.90;;;;;;5135745;27;20233;-70
2023/10/17 08:35:51;;;;;;;9.63;6.40;;;6.70;99.90;;;;;;5136002;27;20286;-69
2023/10/17 08:38:19;;;;;;;8.93;6.57;;;6.80;99.90;;;;;;5136008;27;20255;-69
2023/10/17 08:40:49;;;;;;;7.73;6.03;;;7.00;99.90;;;;;;5135906;27;20199;-69
2023/10/17 08:43:19;;;;;;;8.90;5.50;;;7.00;99.90;;;;;;5135716;27;20238;-69
2023/10/17 08:45:47;;;;;;;7.20;5.67;;;7.10;99.90;;;;;;5135776;27;20259;-69
2023/10/17 08:48:15;;;;;;;6.37;5.63;;;7.20;99.90;;;;;;5135563;27;20214;-69
2023/10/17 08:50:43;;;;;;;8.60;5.27;;;7.30;99.90;;;;;;5135738;27;20222;-71
2023/10/17 08:53:13;;;;;;;7.27;5.43;;;7.60;99.90;;;;;;5135641;27;20218;-69
2023/10/17 08:55:42;;;;;;;6.10;5.43;;;7.80;99.90;;;;;;5135648;27;20206;-70
2023/10/17 08:58:09;;;;;;;6.57;5.60;;;8.10;99.90;;;;;;5135511;27;20293;-70
2023/10/17 09:00:55;;;;;;;7.73;5.83;;;8.40;99.90;;;;;;5135377;27;20252;-70
2023/10/17 09:03:28;;;;;;;8.17;5.37;;;8.70;99.90;;;;;;5135332;27;20658;-70
2023/10/17 09:06:05;;;;;;;6.77;5.23;;;8.90;99.90;;;;;;5135394;27;20198;-69
2023/10/17 09:08:46;;;;;;;8.80;5.63;;;9.20;99.90;;;;;;5135185;27;20222;-70
2023/10/17 09:11:15;;;;;;;5.40;4.80;;;9.30;99.90;;;;;;5135150;27;20191;-69
2023/10/17 09:16:34;;;;;;;5.70;5.17;;;9.60;99.90;;;;;;5135460;27;20275;-70
2023/10/17 09:19:08;;;;;;;6.30;5.37;;;9.70;99.90;;;;;;5135078;27;20206;-69
2023/10/17 09:21:35;;;;;;;8.07;5.33;;;9.80;99.90;;;;;;5135016;27;20195;-69
2023/10/17 09:24:01;;;;;;;6.23;5.13;;;9.90;99.90;;;;;;5135130;27;20252;-69
2023/10/17 09:26:31;;;;;;;6.53;4.27;;;9.70;99.90;;;;;;5134974;27;20195;-69
2023/10/17 09:29:01;;;;;;;5.83;4.00;;;9.60;99.90;;;;;;5134690;27;20227;-70
2023/10/17 09:31:29;;;;;;;6.57;4.87;;;9.60;99.90;;;;;;5134291;27;20715;-69
2023/10/17 09:34:05;;;;;;;7.73;4.60;;;9.90;99.90;;;;;;5134576;27;20313;-69
2023/10/17 09:36:32;;;;;;;4.70;4.30;;;10.10;99.90;;;;;;5134873;27;20289;-69
2023/10/17 09:39:02;;;;;;;6.00;4.13;;;10.10;99.90;;;;;;5134640;27;20199;-70
2023/10/17 09:41:30;;;;;;;4.57;3.97;;;10.20;99.90;;;;;;5134634;27;20241;-70
2023/10/17 09:43:57;;;;;;;5.73;4.33;;;10.40;99.90;;;;;;5134669;27;20191;-70
2023/10/17 09:46:27;;;;;;;5.30;3.40;;;10.50;99.90;;;;;;5134603;27;20195;-70
2023/10/17 09:48:57;;;;;;;6.07;4.00;;;10.70;99.90;;;;;;5134328;27;20635;-70
2023/10/17 09:51:26;;;;;;;5.93;4.17;;;10.50;99.90;;;;;;5134641;27;20202;-70
2023/10/17 09:53:54;;;;;;;6.43;3.87;;;10.40;99.90;;;;;;5134482;27;20194;-69
2023/10/17 09:56:25;;;;;;;8.70;3.93;;;10.40;99.90;;;;;;5134518;27;20237;-69
2023/10/17 09:59:02;;;;;;;5.30;4.10;;;10.50;99.90;;;;;;5134639;27;20224;-69
2023/10/17 10:01:31;;;;;;;5.53;3.87;;;10.60;99.90;;;;;;5134597;27;20197;-70
2023/10/17 10:04:01;;;;;;;10.07;3.83;;;10.70;99.90;;;;;;5134474;27;20206;-71
2023/10/17 10:06:30;;;;;;;5.67;3.90;;;10.80;99.90;;;;;;5134463;27;20195;-69
2023/10/17 10:09:26;;;;;;;6.20;3.90;;;10.50;99.90;;;;;;5134071;27;20559;-69
2023/10/17 10:11:58;;;;;;;5.70;4.20;;;10.40;99.90;;;;;;5134027;27;20565;-70
2023/10/17 10:14:42;;;;;;;4.90;3.60;;;10.20;99.90;;;;;;5131816;27;20195;-74
2023/10/17 10:17:09;;;;;;;7.50;3.33;;;10.20;99.90;;;;;;5130853;27;20191;-70
2023/10/17 10:19:58;;;;;;;7.37;3.50;;;10.20;99.90;;;;;;5130210;27;20202;-70
2023/10/17 10:22:25;;;;;;;4.57;3.47;;;10.00;99.90;;;;;;5130559;27;20723;-70
2023/10/17 10:25:05;;;;;;;4.73;3.70;;;10.00;99.90;;;;;;5130606;27;20203;-70
2023/10/17 10:27:32;;;;;;;4.80;3.63;;;9.90;99.90;;;;;;5130408;27;20658;-70
2023/10/17 10:30:34;;;;;;;3.93;3.10;;;10.20;99.90;;;;;;5130691;27;20255;-70
2023/10/17 10:33:01;;;;;;;5.43;3.77;;;10.40;99.90;;;;;;5130900;27;20233;-70
2023/10/17 10:35:32;;;;;;;8.00;4.00;;;10.40;99.90;;;;;;5130608;27;20628;-70
2023/10/17 10:37:59;;;;;;;4.20;3.70;;;10.50;99.90;;;;;;5130445;28;20294;-70
2023/10/17 10:40:30;;;;;;;6.93;3.70;;;10.60;99.90;;;;;;5130456;27;20198;-70
2023/10/17 10:42:59;;;;;;;3.77;3.10;;;10.70;99.90;;;;;;5136948;27;20203;-70
2023/10/17 10:45:29;;;;;;;5.63;3.40;;;10.80;99.90;;;;;;5137264;27;20225;-70
2023/10/17 10:48:00;;;;;;;4.90;3.87;;;10.90;99.90;;;;;;5137349;27;20222;-71
2023/10/17 10:50:29;;;;;;;6.33;3.43;;;10.70;99.90;;;;;;5137184;27;20198;-70
2023/10/17 10:52:56;;;;;;;4.73;3.47;;;10.70;99.90;;;;;;5138109;27;20198;-71
2023/10/17 10:55:27;;;;;;;4.17;3.23;;;10.70;99.90;;;;;;5136700;27;20230;-73
2023/10/17 10:57:55;;;;;;;5.80;3.53;;;10.70;99.90;;;;;;5127730;27;20210;-72
2023/10/17 11:00:22;;;;;;;5.67;3.80;;;10.80;99.90;;;;;;5139599;27;20195;-72
2023/10/17 11:02:49;;;;;;;3.60;3.30;;;10.80;99.90;;;;;;5140231;27;20199;-72
2023/10/17 11:05:17;;;;;;;6.73;3.83;;;10.80;99.90;;;;;;5139894;27;20597;-72
2023/10/17 11:07:44;;;;;;;5.00;3.80;;;10.90;99.90;;;;;;5140128;27;20191;-71
2023/10/17 11:10:13;;;;;;;4.03;3.63;;;11.00;99.90;;;;;;5140561;27;20198;-70
2023/10/17 11:12:40;;;;;;;5.37;3.77;;;11.20;99.90;;;;;;5140231;27;20191;-73
2023/10/17 11:15:14;;;;;;;3.60;3.30;;;11.20;99.90;;;;;;5140532;27;20214;-70
2023/10/17 11:17:42;;;;;;;4.33;3.33;;;11.20;99.90;;;;;;5140385;27;20203;-70
2023/10/17 11:20:16;;;;;;;3.87;3.50;;;11.10;99.90;;;;;;5144067;27;20258;-70
2023/10/17 11:22:45;;;;;;;5.40;3.70;;;11.10;99.90;;;;;;5144416;27;20194;-70
2023/10/17 11:25:21;;;;;;;4.73;3.90;;;11.20;99.90;;;;;;5142894;27;20224;-69
2023/10/17 11:27:53;;;;;;;4.00;3.60;;;11.10;99.90;;;;;;5140201;27;20251;-69
2023/10/17 11:30:20;;;;;;;4.50;3.97;;;11.00;99.90;;;;;;5140126;27;20199;-69
2023/10/17 11:32:49;;;;;;;5.37;3.93;;;11.10;99.90;;;;;;5139754;27;20203;-70
2023/10/17 11:35:29;;;;;;;5.13;4.30;;;11.00;99.90;;;;;;5140159;27;20191;-70
2023/10/17 11:37:57;;;;;;;7.10;3.70;;;10.90;99.90;;;;;;5139876;27;20240;-70
2023/10/17 11:40:38;;;;;;;4.80;3.90;;;10.90;99.90;;;;;;5140057;27;20282;-70
2023/10/17 11:43:16;;;;;;;6.07;4.47;;;11.00;99.90;;;;;;5140085;27;20190;-70
2023/10/17 11:45:43;;;;;;;5.30;4.20;;;11.00;99.90;;;;;;5140165;27;20282;-70
2023/10/17 11:48:27;;;;;;;5.37;4.40;;;11.10;99.90;;;;;;5139833;27;20723;-70
2023/10/17 11:51:19;;;;;;;4.03;3.50;;;11.20;99.90;;;;;;5138601;27;20255;-70
2023/10/17 11:54:07;;;;;;;4.20;3.80;;;11.10;99.90;;;;;;5136673;27;20649;-70
2023/10/17 11:56:35;;;;;;;4.40;3.73;;;11.10;99.90;;;;;;5136732;27;20282;-70
2023/10/17 11:59:03;;;;;;;5.00;4.20;;;11.20;99.90;;;;;;5136618;27;20267;-71
2023/10/17 12:01:32;;;;;;;7.50;4.13;;;11.20;99.90;;;;;;5136617;27;20195;-69
2023/10/17 12:04:00;;;;;;;6.33;4.60;;;11.20;99.90;;;;;;5136528;27;20610;-69
2023/10/17 12:06:27;;;;;;;5.40;4.13;;;11.10;99.90;;;;;;5136414;27;20664;-69
2023/10/17 12:08:55;;;;;;;6.07;4.17;;;11.10;99.90;;;;;;5136388;27;20223;-69
2023/10/17 12:11:24;;;;;;;4.47;3.80;;;11.10;99.90;;;;;;5136491;27;20202;-69
2023/10/17 12:13:51;;;;;;;7.33;3.87;;;11.10;99.90;;;;;;5136282;27;20203;-69
2023/10/17 12:16:23;;;;;;;4.40;4.00;;;11.20;99.90;;;;;;5136315;27;20199;-70
2023/10/17 12:18:50;;;;;;;4.27;3.60;;;11.20;99.90;;;;;;5136183;27;20397;-70
2023/10/17 12:21:17;;;;;;;5.10;4.33;;;11.20;99.90;;;;;;5136397;27;20199;-70
2023/10/17 12:23:43;;;;;;;4.60;4.20;;;11.30;99.90;;;;;;5136178;27;20199;-70
2023/10/17 12:26:14;;;;;;;6.53;4.57;;;11.00;99.90;;;;;;5136159;27;20198;-69
2023/10/17 12:28:42;;;;;;;6.00;4.10;;;10.90;99.90;;;;;;5136019;27;20223;-70
2023/10/17 12:31:10;;;;;;;4.83;4.03;;;11.00;99.90;;;;;;5135989;27;20247;-69
2023/10/17 12:33:37;;;;;;;4.87;3.83;;;10.80;99.90;;;;;;5135930;27;20227;-69
2023/10/17 12:36:04;;;;;;;8.73;4.27;;;10.80;99.90;;;;;;5135795;27;20727;-69
2023/10/17 12:38:34;;;;;;;5.87;4.37;;;10.60;99.90;;;;;;5135770;27;20669;-69
2023/10/17 12:41:02;;;;;;;5.37;4.00;;;10.60;99.90;;;;;;5135924;27;20287;-69
2023/10/17 12:43:29;;;;;;;4.00;3.60;;;10.60;99.90;;;;;;5135851;27;20592;-70
2023/10/17 12:45:57;;;;;;;6.10;4.17;;;10.60;99.90;;;;;;5135675;27;20822;-70
2023/10/17 12:48:23;;;;;;;4.93;4.40;;;10.60;99.90;;;;;;5135650;27;20226;-70
2023/10/17 12:50:51;;;;;;;5.43;4.23;;;10.60;99.90;;;;;;5135772;27;20206;-70
2023/10/17 12:53:17;;;;;;;5.33;4.23;;;10.70;99.90;;;;;;5135699;27;20267;-70
2023/10/17 12:55:44;;;;;;;7.70;4.43;;;10.70;99.90;;;;;;5135530;27;20199;-69
2023/10/17 12:58:11;;;;;;;6.60;4.60;;;10.70;99.90;;;;;;5135149;27;20714;-70
2023/10/17 13:00:39;;;;;;;4.50;4.07;;;10.80;99.90;;;;;;5135414;27;20282;-69
2023/10/17 13:03:07;;;;;;;5.30;4.30;;;10.70;99.90;;;;;;5135531;27;20294;-69
2023/10/17 13:05:34;;;;;;;6.03;4.57;;;10.80;99.90;;;;;;5134466;27;20195;-69
2023/10/17 13:08:01;;;;;;;5.20;4.53;;;10.80;99.90;;;;;;5135349;27;20198;-69
2023/10/17 13:10:28;;;;;;;5.10;4.17;;;10.80;99.90;;;;;;5135080;27;20227;-70
2023/10/17 13:12:54;;;;;;;5.63;4.10;;;10.90;99.90;;;;;;5134975;27;20673;-69
2023/10/17 13:15:21;;;;;;;5.10;3.87;;;10.90;99.90;;;;;;5135572;27;20236;-69
2023/10/17 13:17:52;;;;;;;5.37;4.23;;;11.00;99.90;;;;;;5135157;27;20251;-69
2023/10/17 13:20:28;;;;;;;5.57;3.93;;;11.10;99.90;;;;;;5135506;27;20252;-69
2023/10/17 13:22:55;;;;;;;6.00;4.07;;;11.20;99.90;;;;;;5134974;27;20202;-69
2023/10/17 13:25:22;;;;;;;5.80;4.10;;;11.20;99.90;;;;;;5134965;27;20679;-69
2023/10/17 13:27:48;;;;;;;4.57;3.80;;;11.30;99.90;;;;;;5134895;27;20191;-69
2023/10/17 13:30:15;;;;;;;5.43;3.83;;;11.30;99.90;;;;;;5134832;27;20588;-70
2023/10/17 13:32:42;;;;;;;4.63;3.67;;;11.40;99.90;;;;;;5134703;27;20251;-70
2023/10/17 13:35:09;;;;;;;5.87;4.30;;;11.40;99.90;;;;;;5134452;27;20239;-70
2023/10/17 13:37:51;;;;;;;5.53;3.67;;;11.40;99.90;;;;;;5134568;27;20672;-71
2023/10/17 13:40:18;;;;;;;5.07;3.67;;;11.40;99.90;;;;;;5134797;27;20234;-70
2023/10/17 13:42:44;;;;;;;4.63;3.30;;;11.40;99.90;;;;;;5134609;27;20195;-70
2023/10/17 13:45:13;;;;;;;4.57;3.90;;;11.60;99.90;;;;;;5134573;27;20199;-70
2023/10/17 13:47:40;;;;;;;6.87;3.90;;;11.80;99.90;;;;;;5134420;27;20195;-70
2023/10/17 13:50:09;;;;;;;4.40;3.80;;;12.00;99.90;;;;;;5134098;27;20230;-70
2023/10/17 13:52:37;;;;;;;6.13;3.80;;;12.20;99.90;;;;;;5134207;27;20199;-69
2023/10/17 13:55:09;;;;;;;4.73;3.40;;;12.10;99.90;;;;;;5134502;27;20199;-69
2023/10/17 13:57:36;;;;;;;5.50;3.83;;;13.00;99.70;;;;;;5134632;27;20199;-70
2023/10/17 14:00:05;;;;;;;5.67;3.80;;;14.90;97.80;;;;;;5134332;27;20282;-70
2023/10/17 14:02:32;;;;;;;3.67;2.95;;;17.50;92.20;;;;;;5134295;27;20218;-70
2023/10/17 14:04:59;;;;;;;3.20;2.85;;;20.20;78.10;;;;;;5133909;27;20646;-70
2023/10/17 14:07:25;;;;;;;5.15;3.28;;;22.40;64.60;;;;;;5134373;27;20240;-70
2023/10/17 14:09:55;;;;;;;2.90;2.53;;;24.20;55.20;;;;;;5134169;27;20239;-71
2023/10/17 14:12:22;;;;;;;3.33;2.65;;;26.10;46.10;;;;;;5134366;27;20195;-72
2023/10/17 14:14:49;;;;;;;4.78;2.83;;;26.80;39.20;;;;;;5134023;27;20588;-71
2023/10/17 14:17:15;;;;;;;3.30;2.78;;;27.50;36.50;;;;;;5133573;27;20195;-71
2023/10/17 14:19:45;;;;;;;3.63;3.10;;;27.90;33.60;;;;;;5134231;27;20195;-72